Time;durP1;ratioP1;P1;durP2;ratioP2;P2;SDS_P1;SDS_P2;PMS_P1;PMS_P2;Temp;Humidity;BMP_temperature;BMP_pressure;BME280_temperature;BME280_humidity;BME280_pressure;Samples;Min_cycle;Max_cycle;Signal;HPM_P1;HPM_P2
2021/10/03 00:01:22;;;;;;;2.85;2.30;;;13.00;99.30;;;;;;4994055;28;20049;-80
2021/10/03 00:03:50;;;;;;;2.47;2.03;;;13.00;98.90;;;;;;4998653;28;20030;-80
2021/10/03 00:06:17;;;;;;;2.53;2.33;;;13.00;98.60;;;;;;5012453;28;20022;-81
2021/10/03 00:08:44;;;;;;;2.47;2.05;;;13.10;98.40;;;;;;5020419;28;20034;-81
2021/10/03 00:11:10;;;;;;;2.67;2.25;;;13.10;98.10;;;;;;5017940;28;20112;-81
2021/10/03 00:13:36;;;;;;;2.05;1.85;;;13.10;97.90;;;;;;5017938;28;20109;-82
2021/10/03 00:16:03;;;;;;;2.22;2.00;;;13.10;97.80;;;;;;5018382;28;20018;-80
2021/10/03 00:18:29;;;;;;;1.90;1.80;;;13.10;97.70;;;;;;4998910;28;20041;-80
2021/10/03 00:20:55;;;;;;;2.63;2.42;;;13.10;97.50;;;;;;5015797;28;20040;-80
2021/10/03 00:23:22;;;;;;;2.17;1.98;;;13.10;97.50;;;;;;5020415;28;20022;-81
2021/10/03 00:25:48;;;;;;;3.28;2.38;;;13.00;97.50;;;;;;5018490;28;20054;-81
2021/10/03 00:28:14;;;;;;;1.80;1.70;;;13.00;97.40;;;;;;5001462;28;20046;-81
2021/10/03 00:30:43;;;;;;;1.95;1.85;;;13.00;97.40;;;;;;5018263;28;20143;-81
2021/10/03 00:33:10;;;;;;;2.20;2.05;;;13.00;97.30;;;;;;5025439;28;20026;-81
2021/10/03 00:35:36;;;;;;;2.58;1.70;;;13.00;97.20;;;;;;5021093;28;20029;-81
2021/10/03 00:38:04;;;;;;;2.72;2.08;;;13.00;97.20;;;;;;5016949;28;20026;-81
2021/10/03 00:40:32;;;;;;;3.47;1.98;;;13.00;97.20;;;;;;5005170;28;20026;-80
2021/10/03 00:43:02;;;;;;;3.13;2.50;;;12.90;97.20;;;;;;5003285;28;20030;-79
2021/10/03 00:45:30;;;;;;;2.83;2.35;;;12.90;97.20;;;;;;4986040;28;20037;-79
2021/10/03 00:47:57;;;;;;;2.72;2.20;;;12.90;97.10;;;;;;5009972;28;20080;-79
2021/10/03 00:50:23;;;;;;;2.00;1.80;;;12.90;97.00;;;;;;5011354;28;20034;-79
2021/10/03 00:52:50;;;;;;;1.92;1.83;;;12.80;96.90;;;;;;4985331;28;20053;-79
2021/10/03 00:55:17;;;;;;;3.42;1.85;;;12.80;96.80;;;;;;5007868;28;20030;-79
2021/10/03 00:57:46;;;;;;;1.65;1.55;;;12.80;96.80;;;;;;4997624;28;20018;-79
2021/10/03 01:00:14;;;;;;;1.58;1.45;;;12.80;97.00;;;;;;5014937;28;20117;-81
2021/10/03 01:02:41;;;;;;;1.85;1.75;;;12.80;96.80;;;;;;4992347;28;20053;-78
2021/10/03 01:05:08;;;;;;;2.13;1.92;;;12.80;96.90;;;;;;5026569;28;20094;-79
2021/10/03 01:07:35;;;;;;;1.67;1.58;;;12.80;96.90;;;;;;5010728;28;20101;-79
2021/10/03 01:10:02;;;;;;;1.58;1.48;;;12.70;96.70;;;;;;5027730;28;20129;-79
2021/10/03 01:12:27;;;;;;;2.10;1.75;;;12.70;96.60;;;;;;5024707;28;20034;-79
2021/10/03 01:14:53;;;;;;;1.63;1.52;;;12.70;96.50;;;;;;5007992;28;20029;-79
2021/10/03 01:17:19;;;;;;;1.63;1.52;;;12.70;96.40;;;;;;5034723;28;20102;-80
2021/10/03 01:19:45;;;;;;;3.25;2.38;;;12.70;96.20;;;;;;5008755;28;20446;-79
2021/10/03 01:22:11;;;;;;;1.67;1.58;;;12.70;96.00;;;;;;5009762;28;20534;-79
2021/10/03 01:24:37;;;;;;;1.98;1.77;;;12.80;95.80;;;;;;5007419;28;20076;-79
2021/10/03 01:27:04;;;;;;;2.45;1.70;;;12.80;95.60;;;;;;5003290;28;20128;-80
2021/10/03 01:29:30;;;;;;;1.40;1.30;;;12.80;95.40;;;;;;5009742;28;20025;-79
2021/10/03 01:31:56;;;;;;;1.60;1.50;;;12.80;95.30;;;;;;5014455;28;20053;-79
2021/10/03 01:34:22;;;;;;;1.63;1.52;;;12.80;95.10;;;;;;5013610;28;20023;-80
2021/10/03 01:36:48;;;;;;;1.77;1.65;;;12.90;95.00;;;;;;5012359;28;20029;-80
2021/10/03 01:39:14;;;;;;;2.05;1.73;;;12.80;94.90;;;;;;5014102;28;20034;-80
2021/10/03 01:41:40;;;;;;;1.88;1.77;;;12.80;94.80;;;;;;5016286;28;20035;-80
2021/10/03 01:44:06;;;;;;;2.35;2.15;;;12.80;94.80;;;;;;5014838;28;20085;-80
2021/10/03 01:46:32;;;;;;;1.90;1.80;;;12.80;94.80;;;;;;5029007;28;20040;-80
2021/10/03 01:48:58;;;;;;;2.33;1.80;;;12.70;94.60;;;;;;5016933;28;20032;-79
2021/10/03 01:51:25;;;;;;;1.70;1.60;;;12.70;94.60;;;;;;5014672;28;20026;-80
2021/10/03 01:54:00;;;;;;;1.70;1.60;;;12.70;94.60;;;;;;5018085;28;20018;-80
2021/10/03 01:56:27;;;;;;;1.70;1.60;;;12.70;94.50;;;;;;5012762;28;20030;-79
2021/10/03 01:58:59;;;;;;;1.77;1.63;;;12.70;94.40;;;;;;5024123;28;20034;-79
2021/10/03 02:01:28;;;;;;;2.13;1.92;;;12.70;94.40;;;;;;5014794;28;20026;-80
2021/10/03 02:03:54;;;;;;;2.10;1.75;;;12.70;94.40;;;;;;5032712;28;20073;-79
2021/10/03 02:06:21;;;;;;;1.92;1.70;;;12.60;94.40;;;;;;5034322;28;20014;-79
2021/10/03 02:08:58;;;;;;;2.92;1.48;;;12.60;94.40;;;;;;5017620;28;20067;-80
2021/10/03 02:11:26;;;;;;;2.25;1.65;;;12.50;94.50;;;;;;5033547;28;20026;-79
2021/10/03 02:13:52;;;;;;;2.17;1.55;;;12.50;94.60;;;;;;5032382;28;20026;-79
2021/10/03 02:16:18;;;;;;;2.08;1.75;;;12.50;94.80;;;;;;5016305;28;20009;-79
2021/10/03 02:18:46;;;;;;;1.95;1.63;;;12.40;94.90;;;;;;5016634;28;20068;-79
2021/10/03 02:21:14;;;;;;;2.22;1.95;;;12.40;95.10;;;;;;5016013;28;20014;-80
2021/10/03 02:23:40;;;;;;;3.65;1.75;;;12.40;95.10;;;;;;5031396;28;20021;-80
2021/10/03 02:26:06;;;;;;;1.92;1.58;;;12.40;95.30;;;;;;5024336;28;20392;-79
2021/10/03 02:28:33;;;;;;;1.77;1.50;;;12.40;95.00;;;;;;5007720;28;20036;-78
2021/10/03 02:31:03;;;;;;;2.97;1.60;;;12.30;95.10;;;;;;5023358;28;20038;-79
2021/10/03 02:33:29;;;;;;;1.83;1.73;;;12.30;95.10;;;;;;5022626;28;20025;-80
2021/10/03 02:35:56;;;;;;;2.38;1.55;;;12.30;95.10;;;;;;4993326;28;20034;-80
2021/10/03 02:38:24;;;;;;;4.10;1.83;;;12.20;95.00;;;;;;5000843;28;20077;-79
2021/10/03 02:40:54;;;;;;;2.47;1.85;;;12.30;95.00;;;;;;5010173;28;20030;-80
2021/10/03 02:43:20;;;;;;;1.77;1.67;;;12.30;95.00;;;;;;5021007;28;20438;-80
2021/10/03 02:45:49;;;;;;;1.52;1.42;;;12.30;94.90;;;;;;5011390;28;20125;-80
2021/10/03 02:48:17;;;;;;;2.67;2.13;;;12.30;94.80;;;;;;5001210;28;20035;-80
2021/10/03 02:50:44;;;;;;;1.70;1.60;;;12.30;94.80;;;;;;5016248;28;20049;-79
2021/10/03 02:53:10;;;;;;;2.38;1.92;;;12.30;94.70;;;;;;5001528;28;20027;-80
2021/10/03 02:55:37;;;;;;;1.42;1.33;;;12.30;94.50;;;;;;5011345;28;20057;-80
2021/10/03 02:58:04;;;;;;;1.77;1.45;;;12.30;94.40;;;;;;5025064;28;20029;-79
2021/10/03 03:00:31;;;;;;;2.22;1.98;;;12.30;94.40;;;;;;5001245;28;20027;-81
2021/10/03 03:02:57;;;;;;;3.42;1.83;;;12.30;94.20;;;;;;5018161;28;20083;-81
2021/10/03 03:05:22;;;;;;;2.60;1.50;;;12.30;94.10;;;;;;5015746;28;20078;-80
2021/10/03 03:07:48;;;;;;;1.40;1.30;;;12.30;94.40;;;;;;5017063;28;20501;-80
2021/10/03 03:10:14;;;;;;;1.50;1.40;;;12.30;94.10;;;;;;5020633;28;20022;-80
2021/10/03 03:12:39;;;;;;;1.75;1.63;;;12.20;94.00;;;;;;5008632;28;20396;-81
2021/10/03 03:15:07;;;;;;;1.42;1.33;;;12.30;94.00;;;;;;5000783;28;20022;-80
2021/10/03 03:17:33;;;;;;;1.75;1.27;;;12.30;93.90;;;;;;5005656;28;20027;-80
2021/10/03 03:19:59;;;;;;;1.23;1.13;;;12.20;93.80;;;;;;5021029;28;20070;-80
2021/10/03 03:22:26;;;;;;;1.42;1.33;;;12.20;93.80;;;;;;4990546;28;20034;-81
2021/10/03 03:24:52;;;;;;;1.52;1.30;;;12.20;93.80;;;;;;5003651;28;20026;-80
2021/10/03 03:27:18;;;;;;;1.58;1.48;;;12.20;93.80;;;;;;5012453;28;20090;-81
2021/10/03 03:29:43;;;;;;;2.08;1.42;;;12.20;93.80;;;;;;5002023;28;20049;-80
2021/10/03 03:32:09;;;;;;;1.70;1.42;;;12.20;93.70;;;;;;5016074;28;20037;-80
2021/10/03 03:34:35;;;;;;;1.73;1.42;;;12.20;93.60;;;;;;5018720;28;20041;-80
2021/10/03 03:37:01;;;;;;;2.17;1.48;;;12.30;93.50;;;;;;5002465;28;20034;-80
2021/10/03 03:39:26;;;;;;;1.30;1.20;;;12.30;93.30;;;;;;5000498;28;20030;-80
2021/10/03 03:41:53;;;;;;;1.40;1.30;;;12.30;93.10;;;;;;5001527;28;20023;-81
2021/10/03 03:44:18;;;;;;;1.52;1.42;;;12.30;93.00;;;;;;5010334;28;20485;-79
2021/10/03 03:46:44;;;;;;;1.50;1.40;;;12.30;92.90;;;;;;5014495;28;20040;-80
2021/10/03 03:49:10;;;;;;;1.90;1.80;;;12.30;93.00;;;;;;5000998;28;20089;-80
2021/10/03 03:51:36;;;;;;;1.50;1.40;;;12.40;92.60;;;;;;5020673;28;20419;-80
2021/10/03 03:54:01;;;;;;;1.98;1.30;;;12.40;92.50;;;;;;5018246;28;20049;-79
2021/10/03 03:56:27;;;;;;;1.42;1.33;;;12.30;92.40;;;;;;5007528;28;20030;-80
2021/10/03 03:58:53;;;;;;;1.77;1.35;;;12.30;92.30;;;;;;5016411;28;20057;-80
2021/10/03 04:01:20;;;;;;;2.25;1.90;;;12.30;92.30;;;;;;5019080;28;20037;-80
2021/10/03 04:03:46;;;;;;;1.50;1.40;;;12.30;92.20;;;;;;5003063;28;20026;-82
2021/10/03 04:06:12;;;;;;;1.48;1.38;;;12.30;92.10;;;;;;4987705;28;20069;-79
2021/10/03 04:08:38;;;;;;;1.52;1.42;;;12.40;92.00;;;;;;5001097;28;20026;-80
2021/10/03 04:11:05;;;;;;;1.55;1.45;;;12.30;92.00;;;;;;4982108;28;20026;-80
2021/10/03 04:13:31;;;;;;;1.52;1.40;;;12.30;92.00;;;;;;4982070;28;20027;-80
2021/10/03 04:15:57;;;;;;;1.40;1.30;;;12.20;92.00;;;;;;5014860;28;20022;-80
2021/10/03 04:18:23;;;;;;;1.70;1.60;;;12.20;92.10;;;;;;5018752;28;20045;-80
2021/10/03 04:20:49;;;;;;;1.63;1.52;;;12.20;92.10;;;;;;5020046;28;20049;-80
2021/10/03 04:23:14;;;;;;;2.17;1.48;;;12.20;92.00;;;;;;5021959;28;20030;-81
2021/10/03 04:25:40;;;;;;;1.70;1.60;;;12.20;92.00;;;;;;4997989;28;20081;-80
2021/10/03 04:28:06;;;;;;;1.67;1.55;;;12.20;92.00;;;;;;5009917;28;20475;-80
2021/10/03 04:30:32;;;;;;;1.60;1.50;;;12.20;92.00;;;;;;4988343;28;20061;-79
2021/10/03 04:32:58;;;;;;;1.83;1.70;;;12.20;92.00;;;;;;5023192;28;20034;-79
2021/10/03 04:35:24;;;;;;;2.10;1.80;;;12.20;91.80;;;;;;5027324;28;20065;-80
2021/10/03 04:37:49;;;;;;;2.00;1.60;;;12.20;91.70;;;;;;5004394;28;20108;-80
2021/10/03 04:40:15;;;;;;;1.67;1.58;;;12.20;91.70;;;;;;5006190;28;20030;-80
2021/10/03 04:42:41;;;;;;;1.80;1.63;;;12.30;91.60;;;;;;5024291;28;20029;-80
2021/10/03 04:45:08;;;;;;;2.08;1.88;;;12.30;91.50;;;;;;5023159;28;20022;-81
2021/10/03 04:47:33;;;;;;;1.83;1.60;;;12.20;91.30;;;;;;4998715;28;20037;-81
2021/10/03 04:50:00;;;;;;;1.50;1.38;;;12.30;91.20;;;;;;5015891;28;20021;-81
2021/10/03 04:52:26;;;;;;;2.22;1.60;;;12.30;91.10;;;;;;5023735;28;20054;-81
2021/10/03 04:54:53;;;;;;;1.50;1.40;;;12.30;91.10;;;;;;5021243;28;20034;-80
2021/10/03 04:57:19;;;;;;;2.30;1.73;;;12.30;91.00;;;;;;5014814;28;20071;-81
2021/10/03 04:59:45;;;;;;;1.88;1.60;;;12.30;90.90;;;;;;5021750;28;20037;-81
2021/10/03 05:02:11;;;;;;;2.00;1.35;;;12.30;90.80;;;;;;5025271;28;20418;-81
2021/10/03 05:04:37;;;;;;;1.45;1.35;;;12.30;90.80;;;;;;5019806;28;20157;-81
2021/10/03 05:07:03;;;;;;;1.65;1.50;;;12.30;90.70;;;;;;5018146;28;20025;-81
2021/10/03 05:09:29;;;;;;;2.15;1.20;;;12.30;90.60;;;;;;5022801;28;20414;-81
2021/10/03 05:11:55;;;;;;;1.60;1.50;;;12.40;90.50;;;;;;5006599;28;20026;-82
2021/10/03 05:14:21;;;;;;;1.50;1.40;;;12.40;90.40;;;;;;5023509;28;20033;-80
2021/10/03 05:16:47;;;;;;;2.22;1.70;;;12.40;90.20;;;;;;5024406;28;20062;-81
2021/10/03 05:19:12;;;;;;;1.67;1.58;;;12.50;90.10;;;;;;5021066;28;20030;-81
2021/10/03 05:21:38;;;;;;;1.50;1.40;;;12.40;90.00;;;;;;5004991;28;20049;-81
2021/10/03 05:24:04;;;;;;;1.42;1.33;;;12.40;90.00;;;;;;5004880;28;20050;-81
2021/10/03 05:26:30;;;;;;;1.45;1.35;;;12.50;89.90;;;;;;5017846;28;20495;-80
2021/10/03 05:28:56;;;;;;;1.67;1.58;;;12.50;89.70;;;;;;5005378;28;20030;-81
2021/10/03 05:31:23;;;;;;;1.67;1.58;;;12.50;89.40;;;;;;5006412;28;20022;-81
2021/10/03 05:33:50;;;;;;;3.25;1.55;;;12.50;89.20;;;;;;4987175;28;20073;-81
2021/10/03 05:36:16;;;;;;;1.60;1.50;;;12.60;89.00;;;;;;5004047;28;20471;-80
2021/10/03 05:38:42;;;;;;;1.52;1.42;;;12.60;88.70;;;;;;4986807;28;20022;-80
2021/10/03 05:41:08;;;;;;;1.50;1.40;;;12.70;88.60;;;;;;4987177;28;20041;-81
2021/10/03 05:43:37;;;;;;;1.63;1.50;;;12.70;88.10;;;;;;5004930;28;20038;-81
2021/10/03 05:46:07;;;;;;;2.65;1.67;;;12.80;87.70;;;;;;5042233;23;20136;-77
2021/10/03 05:48:33;;;;;;;1.23;1.13;;;12.80;87.30;;;;;;5029997;28;20010;-77
2021/10/03 05:51:00;;;;;;;1.50;1.40;;;12.90;86.90;;;;;;5026520;28;20056;-77
2021/10/03 05:53:27;;;;;;;1.33;1.10;;;13.00;86.70;;;;;;5016462;28;20455;-77
2021/10/03 05:55:53;;;;;;;1.65;1.55;;;13.00;86.40;;;;;;5003217;28;20018;-77
2021/10/03 05:58:19;;;;;;;1.70;1.60;;;13.10;86.30;;;;;;5006876;28;20022;-77
2021/10/03 06:00:45;;;;;;;1.40;1.30;;;13.10;86.10;;;;;;5014603;28;20026;-77
2021/10/03 06:03:10;;;;;;;1.60;1.38;;;13.10;85.90;;;;;;5016366;28;20367;-76
2021/10/03 06:05:36;;;;;;;1.45;1.35;;;13.20;85.90;;;;;;5016350;28;20040;-77
2021/10/03 06:08:03;;;;;;;1.52;1.42;;;13.20;85.80;;;;;;4998892;28;20129;-76
2021/10/03 06:10:28;;;;;;;1.30;1.20;;;13.30;85.70;;;;;;5014415;28;20037;-76
2021/10/03 06:12:55;;;;;;;2.30;1.10;;;13.30;85.50;;;;;;5013565;28;20034;-77
2021/10/03 06:15:22;;;;;;;1.85;1.52;;;13.40;85.20;;;;;;5013018;28;20341;-76
2021/10/03 06:17:47;;;;;;;1.83;1.50;;;13.50;84.80;;;;;;4995610;28;20030;-76
2021/10/03 06:20:14;;;;;;;1.70;1.60;;;13.60;84.50;;;;;;5013409;28;20133;-76
2021/10/03 06:22:45;;;;;;;2.65;1.80;;;13.70;84.00;;;;;;5013820;28;20108;-76
2021/10/03 06:25:10;;;;;;;2.08;1.50;;;13.70;83.40;;;;;;5016992;28;20536;-76
2021/10/03 06:27:36;;;;;;;1.73;1.40;;;13.90;82.90;;;;;;5024186;28;20060;-77
2021/10/03 06:30:04;;;;;;;2.28;1.92;;;14.00;83.00;;;;;;5029934;28;20041;-76
2021/10/03 06:32:29;;;;;;;1.58;1.42;;;14.10;81.90;;;;;;5012683;28;20536;-77
2021/10/03 06:34:55;;;;;;;1.75;1.33;;;14.20;81.40;;;;;;5013299;28;20029;-77
2021/10/03 06:37:21;;;;;;;1.60;1.45;;;14.30;80.90;;;;;;5013168;28;20021;-77
2021/10/03 06:39:47;;;;;;;1.50;1.40;;;14.40;80.90;;;;;;5013762;28;20021;-77
2021/10/03 06:42:12;;;;;;;1.30;1.15;;;14.50;80.20;;;;;;5013546;28;20022;-77
2021/10/03 06:44:38;;;;;;;1.50;1.40;;;14.60;79.80;;;;;;5013816;28;20041;-77
2021/10/03 06:47:11;;;;;;;2.03;1.83;;;14.70;79.40;;;;;;5013456;28;20486;-77
2021/10/03 06:49:42;;;;;;;1.70;1.60;;;14.70;78.90;;;;;;5014458;28;20041;-77
2021/10/03 06:52:09;;;;;;;2.53;1.50;;;14.80;78.50;;;;;;5015853;28;20087;-77
2021/10/03 06:54:38;;;;;;;2.33;1.77;;;14.90;78.40;;;;;;5016336;28;20034;-77
2021/10/03 06:57:04;;;;;;;3.33;2.25;;;15.00;77.90;;;;;;5013851;28;20030;-77
2021/10/03 06:59:33;;;;;;;1.70;1.60;;;15.20;77.50;;;;;;5011230;28;20026;-77
2021/10/03 07:02:07;;;;;;;2.05;1.85;;;15.30;77.10;;;;;;4997025;28;20479;-77
2021/10/03 07:04:33;;;;;;;1.73;1.50;;;15.50;76.70;;;;;;5012553;28;20099;-78
2021/10/03 07:06:59;;;;;;;2.00;1.90;;;15.60;76.30;;;;;;4994721;28;20037;-76
2021/10/03 07:09:25;;;;;;;2.35;1.70;;;15.70;75.90;;;;;;5013546;28;20022;-76
2021/10/03 07:11:51;;;;;;;1.85;1.70;;;15.80;75.50;;;;;;5012567;28;20030;-76
2021/10/03 07:14:17;;;;;;;2.10;1.90;;;15.90;75.20;;;;;;5012571;28;20400;-76
2021/10/03 07:16:43;;;;;;;3.70;2.65;;;16.00;74.90;;;;;;5011818;28;20084;-76
2021/10/03 07:19:09;;;;;;;2.65;1.83;;;16.10;74.80;;;;;;5012559;28;20017;-76
2021/10/03 07:21:34;;;;;;;3.38;2.13;;;16.20;74.80;;;;;;5010778;28;20449;-76
2021/10/03 07:24:00;;;;;;;2.83;2.25;;;16.20;74.60;;;;;;4996077;28;20030;-77
2021/10/03 07:26:26;;;;;;;2.95;1.67;;;16.20;75.10;;;;;;5024008;28;20036;-76
2021/10/03 07:28:52;;;;;;;2.67;1.90;;;16.30;74.50;;;;;;5015461;28;20029;-76
2021/10/03 07:31:19;;;;;;;2.35;1.95;;;16.40;74.30;;;;;;5012137;28;20053;-77
2021/10/03 07:33:45;;;;;;;3.35;1.45;;;16.60;74.00;;;;;;4995696;28;20041;-77
2021/10/03 07:36:11;;;;;;;1.70;1.60;;;16.80;73.40;;;;;;5012521;28;20369;-76
2021/10/03 07:38:36;;;;;;;1.77;1.67;;;17.00;72.80;;;;;;5012982;28;20046;-77
2021/10/03 07:41:02;;;;;;;2.83;2.45;;;17.20;72.40;;;;;;5013954;28;20024;-78
2021/10/03 07:43:28;;;;;;;2.05;1.80;;;17.40;71.70;;;;;;4996011;28;20429;-77
2021/10/03 07:45:54;;;;;;;1.80;1.70;;;17.70;71.00;;;;;;5013923;28;20029;-77
2021/10/03 07:48:19;;;;;;;1.48;1.38;;;17.90;70.30;;;;;;5013456;28;20026;-77
2021/10/03 07:50:45;;;;;;;3.58;1.50;;;18.10;69.50;;;;;;5013502;28;20041;-78
2021/10/03 07:53:11;;;;;;;2.05;1.95;;;18.40;68.60;;;;;;5013241;28;20038;-76
2021/10/03 07:55:36;;;;;;;3.00;1.67;;;18.60;67.80;;;;;;4995753;28;20022;-76
2021/10/03 07:58:07;;;;;;;2.92;2.03;;;18.70;66.80;;;;;;4995575;28;20030;-77
2021/10/03 08:00:34;;;;;;;2.05;1.92;;;18.90;65.90;;;;;;5006445;28;20550;-77
2021/10/03 08:03:01;;;;;;;2.88;2.15;;;19.10;65.20;;;;;;5013363;28;20087;-76
2021/10/03 08:05:27;;;;;;;2.05;1.85;;;19.30;64.30;;;;;;5018406;28;20063;-76
2021/10/03 08:07:52;;;;;;;1.55;1.25;;;19.50;63.70;;;;;;5024016;28;20100;-77
2021/10/03 08:10:18;;;;;;;1.77;1.67;;;19.60;63.00;;;;;;5025923;28;20022;-77
2021/10/03 08:12:46;;;;;;;1.70;1.60;;;19.70;63.20;;;;;;5018591;28;20034;-78
2021/10/03 08:15:13;;;;;;;1.85;1.73;;;19.90;62.10;;;;;;5018139;28;20020;-76
2021/10/03 08:17:39;;;;;;;1.73;1.63;;;20.20;61.30;;;;;;5022290;28;20022;-78
2021/10/03 08:20:05;;;;;;;1.58;1.48;;;20.40;60.30;;;;;;5020601;28;20498;-77
2021/10/03 08:22:31;;;;;;;1.70;1.60;;;20.60;59.70;;;;;;5020349;28;20029;-78
2021/10/03 08:24:57;;;;;;;1.50;1.40;;;20.80;59.20;;;;;;5022954;28;20276;-78
2021/10/03 08:27:22;;;;;;;2.25;1.90;;;21.00;58.60;;;;;;5033726;28;20022;-78
2021/10/03 08:29:48;;;;;;;1.58;1.48;;;21.20;58.00;;;;;;5023981;28;20038;-78
2021/10/03 08:32:14;;;;;;;1.50;1.40;;;21.40;57.50;;;;;;5020812;28;20085;-79
2021/10/03 08:34:40;;;;;;;2.42;1.75;;;21.70;56.90;;;;;;5020162;28;20112;-78
2021/10/03 08:37:06;;;;;;;2.53;1.92;;;21.90;56.40;;;;;;5035854;28;20024;-77
2021/10/03 08:39:31;;;;;;;1.67;1.58;;;22.00;55.70;;;;;;5020200;28;20204;-78
2021/10/03 08:41:57;;;;;;;1.77;1.67;;;22.30;55.10;;;;;;5039054;28;20597;-77
2021/10/03 08:44:27;;;;;;;1.42;1.33;;;22.50;54.40;;;;;;5009157;28;20030;-78
2021/10/03 08:46:54;;;;;;;2.03;1.52;;;22.60;54.30;;;;;;5002920;28;20061;-77
2021/10/03 08:49:20;;;;;;;1.60;1.50;;;22.70;54.00;;;;;;4999049;28;20127;-77
2021/10/03 08:51:47;;;;;;;2.25;1.80;;;23.00;53.40;;;;;;5015921;28;20514;-77
2021/10/03 08:54:16;;;;;;;1.73;1.63;;;23.20;52.80;;;;;;5016268;28;20451;-76
2021/10/03 08:56:42;;;;;;;2.03;1.90;;;23.40;52.30;;;;;;5024309;28;20479;-77
2021/10/03 08:59:08;;;;;;;3.13;1.63;;;23.40;52.10;;;;;;4996986;28;20018;-77
2021/10/03 09:01:54;;;;;;;1.80;1.67;;;23.50;51.90;;;;;;5011346;28;20606;-76
2021/10/03 09:04:38;;;;;;;1.60;1.50;;;23.60;51.70;;;;;;5018516;28;20434;-77
2021/10/03 09:07:16;;;;;;;2.03;1.83;;;23.70;51.50;;;;;;5019048;28;20047;-78
2021/10/03 09:09:54;;;;;;;1.63;1.52;;;23.80;51.00;;;;;;5011409;28;20047;-78
2021/10/03 09:12:30;;;;;;;1.65;1.55;;;24.10;50.70;;;;;;5030048;28;20025;-78
2021/10/03 09:14:57;;;;;;;1.85;1.73;;;24.30;50.10;;;;;;5005708;28;20034;-78
2021/10/03 09:17:24;;;;;;;1.83;1.73;;;24.50;50.00;;;;;;5016319;28;20022;-77
2021/10/03 09:20:18;;;;;;;1.80;1.70;;;24.50;49.80;;;;;;5015621;28;20561;-77
2021/10/03 09:22:57;;;;;;;1.92;1.83;;;24.60;49.60;;;;;;5014237;28;20034;-77
2021/10/03 09:25:33;;;;;;;1.67;1.58;;;24.60;49.60;;;;;;5022041;28;20014;-77
2021/10/03 09:27:58;;;;;;;1.42;1.33;;;24.90;48.80;;;;;;5009159;28;20029;-76
2021/10/03 09:30:24;;;;;;;2.10;1.90;;;25.00;48.20;;;;;;5021481;28;20033;-78
2021/10/03 09:32:56;;;;;;;1.70;1.60;;;25.10;47.70;;;;;;5019191;28;20026;-77
2021/10/03 09:35:24;;;;;;;1.45;1.40;;;25.30;46.00;;;;;;5018495;28;20013;-77
2021/10/03 09:37:50;;;;;;;1.80;1.70;;;25.50;44.50;;;;;;5016517;28;20026;-77
2021/10/03 09:40:16;;;;;;;1.80;1.70;;;25.60;43.70;;;;;;5016637;28;20048;-77
2021/10/03 09:42:54;;;;;;;1.58;1.48;;;25.60;43.30;;;;;;5007490;28;20092;-77
2021/10/03 09:45:22;;;;;;;2.08;1.63;;;25.70;42.90;;;;;;5026758;28;20034;-78
2021/10/03 09:47:58;;;;;;;1.85;1.75;;;25.90;42.70;;;;;;5006659;28;20044;-78
2021/10/03 09:50:26;;;;;;;1.85;1.75;;;26.00;42.50;;;;;;5022281;28;20021;-77
2021/10/03 09:52:52;;;;;;;1.67;1.58;;;26.10;42.30;;;;;;5003453;28;20036;-78
2021/10/03 09:55:19;;;;;;;1.70;1.60;;;26.00;42.30;;;;;;5005478;28;20044;-78
2021/10/03 09:57:45;;;;;;;1.90;1.73;;;25.90;42.30;;;;;;5026814;28;20022;-77
2021/10/03 10:00:15;;;;;;;1.73;1.63;;;25.90;42.30;;;;;;5010654;28;20026;-77
2021/10/03 10:02:44;;;;;;;1.70;1.60;;;25.50;42.40;;;;;;5016179;28;20109;-78
2021/10/03 10:05:10;;;;;;;1.55;1.45;;;25.30;42.90;;;;;;5016177;28;20116;-77
2021/10/03 10:07:36;;;;;;;3.08;1.60;;;25.50;43.10;;;;;;5014945;28;20148;-77
2021/10/03 10:10:05;;;;;;;1.77;1.67;;;25.60;42.80;;;;;;5016438;28;20069;-78
2021/10/03 10:12:34;;;;;;;1.60;1.50;;;25.40;43.10;;;;;;5017085;28;20447;-77
2021/10/03 10:15:04;;;;;;;1.52;1.40;;;25.60;43.20;;;;;;5018509;28;20049;-77
2021/10/03 10:17:32;;;;;;;2.08;1.65;;;25.80;42.70;;;;;;5015818;28;20021;-77
2021/10/03 10:19:59;;;;;;;1.80;1.50;;;25.70;42.60;;;;;;4998057;28;20022;-77
2021/10/03 10:22:25;;;;;;;1.50;1.40;;;25.40;42.80;;;;;;5017393;28;20022;-77
2021/10/03 10:25:01;;;;;;;1.77;1.67;;;25.20;43.10;;;;;;5020184;28;20026;-77
2021/10/03 10:27:28;;;;;;;1.65;1.55;;;25.50;42.90;;;;;;5026411;28;20057;-76
2021/10/03 10:29:59;;;;;;;1.40;1.33;;;25.80;42.30;;;;;;5027381;28;20025;-77
2021/10/03 10:32:26;;;;;;;1.70;1.60;;;26.10;42.10;;;;;;5016466;28;20085;-78
2021/10/03 10:35:07;;;;;;;1.98;1.88;;;26.50;41.90;;;;;;5000270;28;20498;-78
2021/10/03 10:37:51;;;;;;;2.90;1.52;;;26.70;41.30;;;;;;5015676;28;20536;-77
2021/10/03 10:40:23;;;;;;;1.60;1.50;;;26.80;41.30;;;;;;4998034;28;20029;-78
2021/10/03 10:43:07;;;;;;;1.60;1.50;;;27.00;41.20;;;;;;4996916;28;20117;-77
2021/10/03 10:45:36;;;;;;;1.70;1.60;;;27.20;41.20;;;;;;4981293;28;20096;-77
2021/10/03 10:48:22;;;;;;;1.70;1.60;;;27.40;41.00;;;;;;4977001;28;20022;-77
2021/10/03 10:50:53;;;;;;;1.63;1.52;;;27.50;40.70;;;;;;4986271;28;20041;-77
2021/10/03 10:53:22;;;;;;;2.80;1.75;;;27.60;40.50;;;;;;5013904;28;20065;-76
2021/10/03 10:56:18;;;;;;;1.80;1.70;;;27.70;40.30;;;;;;5013459;28;20030;-77
2021/10/03 10:58:50;;;;;;;2.00;1.90;;;27.60;40.30;;;;;;5021297;28;20038;-77
2021/10/03 11:01:17;;;;;;;1.60;1.52;;;27.70;40.00;;;;;;5000954;28;20026;-77
2021/10/03 11:03:43;;;;;;;1.38;1.35;;;27.70;39.30;;;;;;5017851;28;20467;-77
2021/10/03 11:06:10;;;;;;;1.52;1.42;;;27.70;39.50;;;;;;5016165;28;20117;-76
2021/10/03 11:09:01;;;;;;;1.63;1.58;;;27.80;39.50;;;;;;5014961;28;20078;-76
2021/10/03 11:11:29;;;;;;;2.05;1.92;;;27.70;39.70;;;;;;5016553;28;20395;-76
2021/10/03 11:13:59;;;;;;;1.80;1.70;;;27.60;40.20;;;;;;4997171;28;20076;-77
2021/10/03 11:16:38;;;;;;;2.08;1.98;;;27.40;40.40;;;;;;5015164;28;20045;-77
2021/10/03 11:19:21;;;;;;;1.80;1.70;;;27.40;40.70;;;;;;4998352;28;20117;-77
2021/10/03 11:21:50;;;;;;;2.30;1.60;;;27.50;40.60;;;;;;5014702;28;20029;-77
2021/10/03 11:24:24;;;;;;;1.92;1.83;;;27.70;40.40;;;;;;5014667;28;20030;-77
2021/10/03 11:27:10;;;;;;;1.50;1.40;;;28.00;39.80;;;;;;5016912;28;20036;-78
2021/10/03 11:29:39;;;;;;;2.25;1.75;;;28.00;39.40;;;;;;5028163;28;20120;-78
2021/10/03 11:32:25;;;;;;;2.72;1.70;;;28.10;38.80;;;;;;5017227;28;20075;-77
2021/10/03 11:34:52;;;;;;;1.58;1.48;;;27.80;38.60;;;;;;5013701;28;20021;-76
2021/10/03 11:37:25;;;;;;;1.77;1.55;;;28.00;38.50;;;;;;5012433;28;20101;-76
2021/10/03 11:40:06;;;;;;;2.72;1.42;;;28.40;38.00;;;;;;5013849;28;20475;-77
2021/10/03 11:42:48;;;;;;;1.92;1.73;;;28.80;37.50;;;;;;5017249;28;20077;-78
2021/10/03 11:45:33;;;;;;;1.55;1.45;;;28.70;37.30;;;;;;5036449;23;20066;-81
2021/10/03 11:48:07;;;;;;;1.83;1.70;;;28.30;37.40;;;;;;5001274;28;20030;-82
2021/10/03 11:50:50;;;;;;;1.80;1.70;;;27.80;38.10;;;;;;4981254;28;20033;-82
2021/10/03 11:53:19;;;;;;;1.63;1.48;;;27.80;38.60;;;;;;5022194;28;20022;-82
2021/10/03 11:55:47;;;;;;;1.52;1.35;;;27.60;38.70;;;;;;5027129;28;20026;-82
2021/10/03 11:58:18;;;;;;;1.60;1.50;;;27.40;38.90;;;;;;5023954;28;20026;-82
2021/10/03 12:00:51;;;;;;;1.90;1.80;;;27.30;39.40;;;;;;5006208;28;20019;-81
2021/10/03 12:03:18;;;;;;;2.83;2.25;;;27.20;39.60;;;;;;5015857;28;20026;-82
2021/10/03 12:05:44;;;;;;;2.08;1.98;;;27.40;39.60;;;;;;5023008;28;20082;-81
2021/10/03 12:08:13;;;;;;;2.22;1.80;;;27.60;39.10;;;;;;5022899;28;20025;-83
2021/10/03 12:10:53;;;;;;;1.88;1.77;;;27.80;38.80;;;;;;5024114;28;20052;-80
2021/10/03 12:13:22;;;;;;;1.63;1.52;;;28.20;38.40;;;;;;4996556;28;20053;-81
2021/10/03 12:15:55;;;;;;;2.25;1.65;;;28.50;37.90;;;;;;4991759;28;20595;-81
2021/10/03 12:18:30;;;;;;;2.20;2.10;;;29.00;37.30;;;;;;5010681;28;20554;-82
2021/10/03 12:21:06;;;;;;;1.40;1.30;;;29.40;36.80;;;;;;5007641;28;20056;-81
2021/10/03 12:23:52;;;;;;;1.60;1.50;;;29.80;36.40;;;;;;4983138;28;20031;-81
2021/10/03 12:26:41;;;;;;;1.60;1.50;;;29.90;36.20;;;;;;4999306;28;20030;-81
2021/10/03 12:29:07;;;;;;;1.70;1.63;;;29.70;36.40;;;;;;5015537;28;20022;-82
2021/10/03 12:31:38;;;;;;;1.60;1.50;;;29.50;36.70;;;;;;5017442;28;20030;-81
2021/10/03 12:34:28;;;;;;;2.00;1.80;;;29.60;36.90;;;;;;5019430;28;20044;-81
2021/10/03 12:36:54;;;;;;;1.52;1.42;;;29.50;36.80;;;;;;5017174;28;20499;-80
2021/10/03 12:39:21;;;;;;;1.35;1.33;;;29.50;36.50;;;;;;5016775;28;20025;-81
2021/10/03 12:41:48;;;;;;;1.70;1.60;;;29.40;36.40;;;;;;4980079;28;20035;-81
2021/10/03 12:44:15;;;;;;;1.73;1.63;;;29.20;36.90;;;;;;4987466;28;20068;-81
2021/10/03 12:46:41;;;;;;;1.63;1.52;;;29.10;37.40;;;;;;5008776;28;20029;-81
2021/10/03 12:49:07;;;;;;;1.98;1.88;;;28.90;37.60;;;;;;4998293;28;20054;-81
2021/10/03 12:51:33;;;;;;;1.67;1.58;;;28.80;37.70;;;;;;5004286;28;20070;-81
2021/10/03 12:53:59;;;;;;;1.60;1.50;;;28.80;37.80;;;;;;5000983;28;20030;-80